Time;durP1;ratioP1;P1;durP2;ratioP2;P2;SDS_P1;SDS_P2;PMS_P1;PMS_P2;Temp;Humidity;BMP_temperature;BMP_pressure;BME280_temperature;BME280_humidity;BME280_pressure;Samples;Min_cycle;Max_cycle;Signal;HPM_P1;HPM_P2
2023/10/02 00:03:29;;;;;;;;;8.67;7.00;;;;;22.17;69.16;100628.91;5058023;28;45764;-78
2023/10/02 00:05:55;;;;;;;;;7.00;7.00;;;;;22.16;68.62;100617.41;5076620;28;45552;-77
2023/10/02 00:11:35;;;;;;;;;7.00;7.00;;;;;21.97;69.20;100595.53;5059222;28;45427;-78
2023/10/02 00:14:20;;;;;;;;;12.33;10.67;;;;;22.04;68.74;100612.25;5064488;28;46198;-78
2023/10/02 00:16:59;;;;;;;;;4.67;4.67;;;;;22.05;68.63;100614.91;5048351;28;45440;-78
2023/10/02 00:19:32;;;;;;;;;7.67;7.33;;;;;22.07;68.71;100619.34;5060107;28;45348;-78
2023/10/02 00:22:05;;;;;;;;;7.00;7.00;;;;;22.01;68.39;100620.31;5078804;28;45526;-78
2023/10/02 00:24:32;;;;;;;;;7.33;7.00;;;;;21.95;68.52;100615.97;5078151;27;45438;-78
2023/10/02 00:26:59;;;;;;;;;8.67;7.67;;;;;21.86;68.35;100610.78;5077231;27;45469;-76
2023/10/02 00:29:26;;;;;;;;;8.00;7.00;;;;;21.70;69.15;100602.16;5079304;27;45405;-77
2023/10/02 00:31:52;;;;;;;;;7.00;6.67;;;;;20.89;69.15;100474.00;5056313;28;45506;-77
2023/10/02 00:34:30;;;;;;;;;8.00;7.67;;;;;21.56;69.06;100599.69;5039759;28;46455;-77
2023/10/02 00:37:00;;;;;;;;;9.33;9.33;;;;;21.58;69.53;100605.88;5076090;28;45273;-78
2023/10/02 00:39:30;;;;;;;;;7.67;7.67;;;;;21.56;69.80;100605.00;5052767;28;45412;-77
2023/10/02 00:44:55;;;;;;;;;7.33;7.00;;;;;21.68;68.13;100600.41;5073302;28;45734;-77
2023/10/02 00:47:49;;;;;;;;;8.00;8.00;;;;;21.61;68.44;100597.00;5057775;28;45502;-77
2023/10/02 00:50:21;;;;;;;;;7.67;6.67;;;;;21.59;68.01;100591.69;5073166;28;45538;-76
2023/10/02 00:53:00;;;;;;;;;9.33;8.67;;;;;21.61;68.37;100594.31;5062436;28;45508;-77
2023/10/02 00:55:32;;;;;;;;;7.33;7.33;;;;;21.62;69.01;100590.75;5076678;28;46240;-77
2023/10/02 00:57:59;;;;;;;;;7.00;6.00;;;;;21.60;68.34;100592.56;5066805;28;45313;-77
2023/10/02 01:00:36;;;;;;;;;6.00;6.00;;;;;21.56;68.75;100591.72;5073250;28;45506;-77
2023/10/02 01:03:14;;;;;;;;;9.33;9.00;;;;;21.59;68.34;100588.16;5077451;27;45430;-78
2023/10/02 01:05:47;;;;;;;;;7.00;7.00;;;;;21.61;69.21;100583.69;5075155;28;45968;-77
2023/10/02 01:08:24;;;;;;;;;8.00;7.67;;;;;21.50;69.12;100581.19;5056533;28;45376;-77
2023/10/02 01:10:57;;;;;;;;;7.33;7.00;;;;;21.49;68.93;100579.44;5077694;28;45489;-78
2023/10/02 01:13:27;;;;;;;;;8.00;7.67;;;;;21.40;69.30;100566.25;5067517;28;45398;-77
2023/10/02 01:15:54;;;;;;;;;6.00;6.00;;;;;21.41;69.18;100568.00;5057605;28;45502;-78
2023/10/02 01:18:23;;;;;;;;;7.67;7.67;;;;;21.42;69.63;100564.44;5057115;28;45211;-77
2023/10/02 01:20:53;;;;;;;;;7.00;7.00;;;;;21.45;68.85;100577.72;5057901;28;45301;-76
2023/10/02 01:23:25;;;;;;;;;9.00;8.33;;;;;21.45;68.40;100567.09;5057971;28;45362;-77
2023/10/02 01:25:57;;;;;;;;;8.00;8.00;;;;;21.22;69.43;100531.03;5058078;28;46046;-77
2023/10/02 01:28:25;;;;;;;;;5.00;5.00;;;;;21.36;69.36;100554.75;5071444;28;45217;-78
2023/10/02 01:30:55;;;;;;;;;8.00;8.00;;;;;21.31;69.30;100542.44;5049753;28;45573;-77
2023/10/02 01:33:22;;;;;;;;;9.33;7.00;;;;;21.43;68.52;100564.44;5077807;28;45490;-77
2023/10/02 01:35:54;;;;;;;;;8.33;8.33;;;;;21.39;69.23;100565.38;5041766;28;46314;-76
2023/10/02 01:38:27;;;;;;;;;8.00;8.00;;;;;21.29;69.12;100560.19;5068502;28;45353;-78
2023/10/02 01:41:02;;;;;;;;;8.33;8.33;;;;;21.19;69.21;100546.19;5070944;28;45597;-78
2023/10/02 01:43:32;;;;;;;;;8.00;8.00;;;;;21.26;69.36;100551.34;5073764;28;45526;-78
2023/10/02 01:46:00;;;;;;;;;7.00;6.67;;;;;21.15;69.69;100537.38;5039056;28;45831;-77
2023/10/02 01:48:36;;;;;;;;;7.67;6.67;;;;;21.26;69.60;100553.16;5056918;28;45228;-77
2023/10/02 01:51:31;;;;;;;;;8.33;8.33;;;;;21.16;69.33;100531.13;5056939;28;45435;-77
2023/10/02 01:53:59;;;;;;;;;10.33;9.33;;;;;21.21;69.11;100539.94;5063890;28;45443;-77
2023/10/02 01:56:27;;;;;;;;;7.00;7.00;;;;;21.24;69.08;100545.19;5076419;28;45438;-77
2023/10/02 01:58:54;;;;;;;;;10.00;10.00;;;;;21.21;69.28;100531.97;5076604;28;45239;-77
2023/10/02 02:01:21;;;;;;;;;9.67;9.33;;;;;21.25;69.43;100533.69;5041497;28;45451;-77
2023/10/02 02:03:50;;;;;;;;;8.00;7.67;;;;;21.23;69.59;100531.94;5075686;28;45472;-76
2023/10/02 02:06:20;;;;;;;;;8.00;7.00;;;;;21.26;70.01;100529.22;5063728;28;47678;-77
2023/10/02 02:09:01;;;;;;;;;8.33;8.33;;;;;21.16;69.55;100504.56;5038583;28;45401;-77
2023/10/02 02:11:34;;;;;;;;;8.33;7.67;;;;;21.34;69.67;100527.34;5076696;28;45705;-77
2023/10/02 02:14:02;;;;;;;;;6.33;6.33;;;;;21.24;69.69;100502.69;5076623;28;45354;-77
2023/10/02 02:16:33;;;;;;;;;6.67;6.00;;;;;21.37;69.93;100510.50;5041966;28;45403;-77
2023/10/02 02:19:05;;;;;;;;;8.00;8.00;;;;;21.40;69.62;100515.75;5076382;28;45454;-77
2023/10/02 02:21:31;;;;;;;;;7.00;6.33;;;;;21.48;69.72;100518.31;5075667;28;45268;-77
2023/10/02 02:24:03;;;;;;;;;7.00;7.00;;;;;21.49;68.75;100509.44;5042872;28;45472;-77
2023/10/02 02:26:31;;;;;;;;;6.00;6.00;;;;;21.46;68.94;100497.06;5055112;28;46752;-77
2023/10/02 02:28:57;;;;;;;;;5.00;5.00;;;;;21.48;67.56;100489.97;5062186;28;45428;-78
2023/10/02 02:31:39;;;;;;;;;6.00;6.00;;;;;21.58;67.07;100494.22;5056919;28;45389;-77
2023/10/02 02:34:14;;;;;;;;;6.33;6.33;;;;;21.55;66.31;100478.34;5059839;28;45513;-77
2023/10/02 02:36:41;;;;;;;;;4.67;4.67;;;;;;;;5067600;28;46053;-78
2023/10/02 02:39:15;;;;;;;;;7.00;6.67;;;;;21.74;65.63;100493.97;5056614;28;45519;-77
2023/10/02 02:41:42;;;;;;;;;4.33;4.33;;;;;21.76;64.44;100482.41;5054198;28;45542;-77
2023/10/02 02:44:29;;;;;;;;;5.00;5.00;;;;;21.97;63.49;100496.25;5055243;28;45371;-78
2023/10/02 02:46:55;;;;;;;;;5.00;5.00;;;;;22.03;62.36;100478.38;5069662;28;45425;-77
2023/10/02 02:49:25;;;;;;;;;7.33;7.33;;;;;22.22;61.44;100478.03;5075079;27;45392;-77
2023/10/02 02:51:55;;;;;;;;;5.67;5.00;;;;;22.23;60.90;100461.19;5076293;28;45358;-77
2023/10/02 02:54:25;;;;;;;;;5.67;5.67;;;;;22.41;60.00;100473.28;5047776;28;46475;-77
2023/10/02 02:57:00;;;;;;;;;5.67;5.33;;;;;22.60;59.80;100476.41;5038154;28;46332;-75
2023/10/02 02:59:27;;;;;;;;;6.33;6.33;;;;;22.70;58.73;100470.03;5065837;28;45514;-78
2023/10/02 03:02:21;;;;;;;;;6.00;6.00;;;;;22.74;59.17;100469.03;5038441;28;45435;-77
2023/10/02 03:04:50;;;;;;;;;5.67;5.67;;;;;22.85;59.19;100474.13;5055134;28;45453;-77
2023/10/02 03:07:29;;;;;;;;;6.00;6.00;;;;;22.89;58.66;100477.59;5054737;28;45433;-76
2023/10/02 03:09:58;;;;;;;;;6.67;5.67;;;;;22.96;57.75;100471.22;5046756;28;45675;-77
2023/10/02 03:12:24;;;;;;;;;6.00;5.67;;;;;22.95;57.97;100458.81;5073802;27;45519;-76
2023/10/02 03:14:54;;;;;;;;;6.00;6.00;;;;;22.98;56.96;100446.31;5061934;28;45402;-76
2023/10/02 03:17:28;;;;;;;;;6.33;6.00;;;;;23.20;55.58;100461.84;5079036;28;46142;-77
2023/10/02 03:20:00;;;;;;;;;7.00;7.00;;;;;23.02;54.99;100405.41;5061240;28;45414;-77
2023/10/02 03:22:27;;;;;;;;;5.33;5.33;;;;;23.43;54.65;100448.81;5068390;28;45454;-77
2023/10/02 03:24:57;;;;;;;;;6.67;6.67;;;;;23.58;54.46;100458.22;5074567;27;45532;-77
2023/10/02 03:27:23;;;;;;;;;6.00;6.00;;;;;23.69;54.06;100459.75;5062637;28;46273;-76
2023/10/02 03:29:52;;;;;;;;;8.00;7.67;;;;;23.66;53.90;100443.84;5053248;28;45509;-77
2023/10/02 03:32:18;;;;;;;;;7.00;7.00;;;;;23.73;54.02;100432.06;5059468;28;45572;-77
2023/10/02 03:34:48;;;;;;;;;6.33;6.00;;;;;23.88;53.94;100445.06;5059414;28;45367;-77
2023/10/02 03:37:15;;;;;;;;;7.00;6.33;;;;;23.91;53.80;100447.63;5040861;28;46602;-77
2023/10/02 03:40:00;;;;;;;;;7.33;7.00;;;;;23.97;53.38;100450.16;5058823;28;45653;-77
2023/10/02 03:42:31;;;;;;;;;6.33;6.00;;;;;23.90;53.25;100426.34;5065330;28;45296;-77
2023/10/02 03:45:02;;;;;;;;;6.33;6.33;;;;;23.98;53.27;100430.53;5076303;28;45592;-77
2023/10/02 03:47:30;;;;;;;;;8.00;7.67;;;;;24.11;52.82;100452.41;5041097;28;45760;-76
2023/10/02 03:50:01;;;;;;;;;5.00;5.00;;;;;24.16;51.81;100445.16;5044569;28;45367;-77
2023/10/02 03:52:28;;;;;;;;;7.00;7.00;;;;;24.16;51.63;100429.16;5060789;28;45492;-77
2023/10/02 03:54:55;;;;;;;;;6.67;6.67;;;;;24.08;52.03;100414.28;5056384;28;45604;-76
2023/10/02 04:00:18;;;;;;;;;7.67;7.00;;;;;24.25;51.69;100412.00;5069618;28;45216;-77
2023/10/02 04:02:47;;;;;;;;;6.67;6.67;;;;;24.34;51.54;100427.75;5075850;28;45298;-77
2023/10/02 04:05:42;;;;;;;;;8.33;7.00;;;;;24.43;51.63;100431.94;5059442;28;45569;-78
2023/10/02 04:08:15;;;;;;;;;7.00;7.00;;;;;24.35;51.61;100420.63;5058326;28;46137;-78
2023/10/02 04:10:56;;;;;;;;;7.33;7.00;;;;;24.45;51.12;100443.44;5076606;28;45420;-75
2023/10/02 04:13:25;;;;;;;;;8.00;7.00;;;;;24.48;51.17;100439.84;5069600;28;45560;-77
2023/10/02 04:16:28;;;;;;;;;9.00;8.33;;;;;24.41;50.67;100410.66;5050764;28;45447;-76
2023/10/02 04:18:46;;;;;;;;;6.67;6.67;;;;;24.46;50.89;100420.31;5058281;28;45860;-77
2023/10/02 04:21:19;;;;;;;;;7.33;7.33;;;;;24.44;49.69;100411.47;5049329;28;45315;-77
2023/10/02 04:23:45;;;;;;;;;9.00;8.00;;;;;24.51;50.27;100403.28;5077310;28;45342;-77
2023/10/02 04:26:20;;;;;;;;;9.00;9.00;;;;;24.64;49.08;100425.13;5074810;28;45560;-76
2023/10/02 04:28:58;;;;;;;;;7.33;6.67;;;;;24.70;50.15;100418.75;5067036;28;45865;-76
2023/10/02 04:31:28;;;;;;;;;8.00;7.33;;;;;24.74;49.46;100415.91;5078150;27;45309;-75
2023/10/02 04:36:41;;;;;;;;;9.00;8.33;;;;;24.72;48.65;100393.72;5068501;28;45360;-76
2023/10/02 04:42:13;;;;;;;;;7.33;7.00;;;;;24.92;48.39;100402.91;5058104;28;46019;-74
2023/10/02 04:44:46;;;;;;;;;8.33;8.33;;;;;24.90;48.22;100388.72;5054893;28;45266;-74
2023/10/02 04:47:20;;;;;;;;;7.67;7.67;;;;;24.98;48.59;100405.38;5065696;28;45865;-75
2023/10/02 04:55:24;;;;;;;;;8.67;8.00;;;;;24.96;48.12;100391.19;5076679;28;45781;-76
2023/10/02 04:57:54;;;;;;;;;9.00;8.00;;;;;24.92;48.43;100382.41;5068253;28;45352;-75
2023/10/02 05:00:32;;;;;;;;;7.67;7.67;;;;;24.97;48.35;100387.63;5071864;28;45461;-75
2023/10/02 05:06:00;;;;;;;;;7.67;7.00;;;;;25.00;47.34;100396.38;5048637;28;45465;-76
2023/10/02 05:08:41;;;;;;;;;8.00;8.00;;;;;25.13;47.60;100401.38;5057328;28;45477;-75
2023/10/02 05:11:23;;;;;;;;;6.33;6.00;;;;;25.08;47.92;100395.28;5064620;28;46138;-75
2023/10/02 05:16:35;;;;;;;;;7.00;7.00;;;;;25.11;47.52;100400.50;5063672;28;45752;-75
2023/10/02 05:19:04;;;;;;;;;9.33;8.67;;;;;25.14;47.27;100409.31;5042118;28;45479;-78
2023/10/02 05:21:36;;;;;;;;;11.00;10.00;;;;;25.16;47.51;100401.25;5076953;28;45371;-76
2023/10/02 05:24:11;;;;;;;;;7.67;7.33;;;;;25.11;47.23;100395.16;5046132;28;45431;-76
2023/10/02 05:26:41;;;;;;;;;10.00;9.00;;;;;25.19;46.98;100407.38;5072850;28;45668;-76
2023/10/02 05:29:12;;;;;;;;;11.00;10.00;;;;;25.18;46.78;100400.25;5064632;28;45521;-76
2023/10/02 05:31:42;;;;;;;;;8.67;7.33;;;;;25.11;46.82;100396.06;5042182;28;46321;-77
2023/10/02 05:34:24;;;;;;;;;8.00;7.67;;;;;25.18;47.22;100400.25;5068581;28;45383;-75
2023/10/02 05:37:23;;;;;;;;;8.00;7.00;;;;;25.20;46.38;100403.75;5057476;28;45238;-75
2023/10/02 05:39:40;;;;;;;;;11.00;9.33;;;;;25.27;46.73;100414.28;5057399;28;45486;-76
2023/10/02 05:42:13;;;;;;;;;9.00;9.00;;;;;25.29;46.73;100415.13;5058993;28;45453;-77
2023/10/02 05:44:47;;;;;;;;;8.00;8.00;;;;;25.31;46.23;100407.94;5076698;28;45549;-77
2023/10/02 05:47:17;;;;;;;;;7.33;7.33;;;;;25.30;46.10;100406.16;5076748;28;45461;-76
2023/10/02 05:49:47;;;;;;;;;9.00;8.67;;;;;25.35;46.62;100420.28;5042074;28;45338;-76
2023/10/02 05:52:14;;;;;;;;;11.33;10.33;;;;;25.32;46.08;100412.34;5076664;28;47034;-76
2023/10/02 05:54:47;;;;;;;;;10.67;10.67;;;;;25.35;46.12;100417.59;5076026;28;45599;-75
2023/10/02 05:57:14;;;;;;;;;6.33;5.00;;;;;25.35;46.01;100417.59;5066775;28;45485;-76
2023/10/02 06:00:16;;;;;;;;;8.67;8.67;;;;;25.44;45.46;100413.72;5064466;28;45394;-77
2023/10/02 06:02:31;;;;;;;;;10.00;8.00;;;;;25.29;45.22;100378.56;5072810;28;46177;-77
2023/10/02 06:05:07;;;;;;;;;8.00;8.00;;;;;25.51;44.90;100413.47;5073431;28;46661;-76
2023/10/02 06:07:45;;;;;;;;;8.00;8.00;;;;;25.59;45.37;100411.41;5056127;28;45525;-77
2023/10/02 06:10:46;;;;;;;;;9.00;9.00;;;;;25.64;45.33;100405.88;5069896;28;45291;-75
2023/10/02 06:13:05;;;;;;;;;10.00;8.67;;;;;25.68;45.25;100414.69;5067961;27;45876;-77
2023/10/02 06:15:47;;;;;;;;;9.00;8.00;;;;;25.70;45.19;100420.84;5064843;28;45628;-75
2023/10/02 06:18:27;;;;;;;;;9.67;7.67;;;;;25.61;45.24;100408.69;5075904;28;45425;-77
2023/10/02 06:21:03;;;;;;;;;10.00;9.00;;;;;25.77;45.04;100427.75;5057012;28;45575;-75
2023/10/02 06:23:37;;;;;;;;;8.00;8.00;;;;;25.79;45.05;100431.25;5056211;28;46310;-76
2023/10/02 06:26:09;;;;;;;;;10.00;9.00;;;;;25.76;44.95;100413.47;5056542;28;45498;-76
2023/10/02 06:28:36;;;;;;;;;8.33;8.00;;;;;25.89;44.48;100438.03;5039825;28;45974;-77
2023/10/02 06:31:06;;;;;;;;;7.00;7.00;;;;;25.91;45.17;100433.53;5056517;28;45429;-76
2023/10/02 06:33:36;;;;;;;;;8.67;8.33;;;;;25.87;44.94;100426.50;5056594;28;45981;-77
2023/10/02 06:36:11;;;;;;;;;7.67;7.00;;;;;25.98;44.82;100448.44;5057917;28;45521;-77
2023/10/02 06:38:38;;;;;;;;;9.00;9.00;;;;;25.95;44.30;100435.16;5075890;28;45236;-76
2023/10/02 06:41:12;;;;;;;;;7.00;7.00;;;;;26.05;45.32;100456.25;5076203;28;45417;-77
2023/10/02 06:43:38;;;;;;;;;9.00;8.00;;;;;26.03;44.45;100458.13;5041354;28;46959;-76
2023/10/02 06:46:16;;;;;;;;;8.00;8.00;;;;;26.10;44.79;100460.53;5057967;28;45516;-75
2023/10/02 06:48:54;;;;;;;;;6.67;6.67;;;;;26.10;45.00;100462.31;5079711;28;45617;-76
2023/10/02 06:51:20;;;;;;;;;8.00;7.33;;;;;26.14;44.41;100450.56;5045336;28;45335;-76
2023/10/02 06:53:46;;;;;;;;;8.00;8.00;;;;;26.23;44.23;100458.28;5063684;28;46047;-77
2023/10/02 06:56:13;;;;;;;;;7.67;7.67;;;;;26.19;44.40;100446.78;5079290;28;45939;-75
2023/10/02 06:58:56;;;;;;;;;8.00;7.00;;;;;26.32;43.94;100452.59;5049428;28;45398;-75
2023/10/02 07:01:27;;;;;;;;;8.33;7.67;;;;;26.30;43.92;100450.88;5062303;28;45443;-75
2023/10/02 07:03:55;;;;;;;;;10.00;10.00;;;;;26.31;44.53;100441.94;5076902;27;46278;-75
2023/10/02 07:06:25;;;;;;;;;8.67;8.67;;;;;26.42;44.10;100454.91;5077681;28;45472;-75
2023/10/02 07:09:10;;;;;;;;;8.00;7.33;;;;;26.29;44.90;100428.59;5079451;28;45572;-76
2023/10/02 07:11:42;;;;;;;;;7.67;7.67;;;;;26.47;44.66;100455.63;5064820;28;45652;-75
2023/10/02 07:14:10;;;;;;;;;9.00;9.00;;;;;26.66;44.49;100454.03;5061243;28;45485;-75
2023/10/02 07:16:37;;;;;;;;;9.67;9.00;;;;;27.84;43.57;100450.19;5054507;28;45488;-81
2023/10/02 07:19:07;;;;;;;;;7.67;7.00;;;;;30.22;40.98;100451.38;5069874;28;45462;-80
2023/10/02 07:21:35;;;;;;;;;9.67;8.00;;;;;32.09;37.53;100456.06;5068175;28;45390;-79
2023/10/02 07:24:25;;;;;;;;;8.67;8.67;;;;;33.84;33.62;100461.03;5073238;28;46075;-80
2023/10/02 07:26:51;;;;;;;;;8.33;7.67;;;;;35.59;32.14;100461.06;5078218;28;46141;-81
2023/10/02 07:29:19;;;;;;;;;9.33;9.00;;;;;36.73;30.45;100464.94;5061026;28;45564;-81
2023/10/02 07:31:45;;;;;;;;;7.33;7.33;;;;;37.70;29.72;100471.41;5079198;28;45540;-81
2023/10/02 07:34:15;;;;;;;;;6.00;6.00;;;;;38.63;26.94;100472.47;5062599;28;45446;-74
2023/10/02 07:36:47;;;;;;;;;7.00;7.00;;;;;39.41;25.60;100463.63;5044030;28;45510;-80
2023/10/02 07:42:01;;;;;;;;;9.00;8.00;;;;;40.08;23.42;100473.69;5079430;28;45437;-75
2023/10/02 07:44:39;;;;;;;;;8.00;7.67;;;;;40.99;25.60;100480.44;5073563;28;45982;-78
2023/10/02 07:47:16;;;;;;;;;8.33;8.00;;;;;41.79;23.67;100477.91;5075785;28;45324;-78
2023/10/02 07:49:54;;;;;;;;;7.00;7.00;;;;;41.96;24.46;100455.03;5071789;28;45456;-75
2023/10/02 07:52:29;;;;;;;;;7.67;7.33;;;;;42.56;21.54;100473.47;5058222;28;45762;-76
2023/10/02 07:55:01;;;;;;;;;8.00;8.00;;;;;43.06;22.17;100474.56;5067442;28;46843;-75
2023/10/02 07:57:32;;;;;;;;;7.00;5.67;;;;;43.71;22.34;100475.72;5078441;28;45417;-74
2023/10/02 08:02:48;;;;;;;;;8.67;7.67;;;;;44.56;21.42;100473.38;5077600;28;45524;-74
2023/10/02 08:05:17;;;;;;;;;6.67;6.33;;;;;45.00;18.98;100483.03;5059204;28;46454;-75
2023/10/02 08:07:42;;;;;;;;;6.00;6.00;;;;;45.14;20.38;100485.00;5083910;28;45752;-76
2023/10/02 08:10:10;;;;;;;;;8.00;7.33;;;;;45.76;19.58;100483.25;5081032;28;45137;-76
2023/10/02 08:12:36;;;;;;;;;8.33;8.33;;;;;45.82;19.69;100454.88;5088760;28;45446;-75
2023/10/02 08:20:31;;;;;;;;;8.00;8.00;;;;;46.91;18.95;100491.19;5061913;28;45400;-80
2023/10/02 08:23:01;;;;;;;;;7.67;7.00;;;;;46.97;19.23;100493.19;5052656;28;45470;-74
2023/10/02 08:25:27;;;;;;;;;7.00;7.00;;;;;47.22;19.02;100499.25;5066379;28;45790;-77
2023/10/02 08:27:56;;;;;;;;;7.00;7.00;;;;;47.46;19.27;100493.56;5076186;28;45536;-80
2023/10/02 08:30:31;;;;;;;;;9.00;8.00;;;;;47.30;19.72;100491.91;5072856;28;45727;-80
2023/10/02 08:33:11;;;;;;;;;10.00;9.00;;;;;47.33;18.28;100491.47;5056295;28;45382;-77
2023/10/02 08:35:37;;;;;;;;;7.67;7.67;;;;;47.26;18.68;100487.78;5058732;28;47000;-80
2023/10/02 08:38:07;;;;;;;;;6.33;6.33;;;;;47.31;19.20;100493.59;5075274;28;45382;-74
2023/10/02 08:40:40;;;;;;;;;6.67;6.00;;;;;47.45;18.98;100489.06;5072978;28;45570;-74
2023/10/02 08:43:06;;;;;;;;;7.00;7.00;;;;;47.19;18.66;100488.56;5076773;28;45418;-81
2023/10/02 08:45:33;;;;;;;;;7.67;7.67;;;;;46.54;18.93;100498.56;5075224;28;45397;-74
2023/10/02 08:48:07;;;;;;;;;8.00;8.00;;;;;46.20;19.19;100499.06;5076507;28;45479;-74
2023/10/02 08:50:34;;;;;;;;;9.33;9.33;;;;;45.88;20.13;100483.66;5074682;28;45355;-77
2023/10/02 08:53:04;;;;;;;;;10.67;10.67;;;;;45.84;20.25;100489.56;5058964;28;45623;-74
2023/10/02 08:55:35;;;;;;;;;7.33;7.33;;;;;46.03;20.37;100490.94;5066475;28;45529;-74
2023/10/02 08:58:16;;;;;;;;;9.33;9.33;;;;;46.07;20.79;100504.41;5057675;28;45391;-75
2023/10/02 09:03:42;;;;;;;;;7.33;7.33;;;;;45.42;19.73;100496.41;5057962;28;45453;-84
2023/10/02 09:06:32;;;;;;;;;8.00;8.00;;;;;45.03;21.40;100501.97;5058581;28;45536;-75
2023/10/02 09:11:41;;;;;;;;;11.00;10.67;;;;;44.90;20.08;100493.44;5058047;28;45228;-83
2023/10/02 09:14:24;;;;;;;;;8.33;8.33;;;;;44.98;20.03;100494.22;5040234;28;45651;-74
2023/10/02 09:17:07;;;;;;;;;10.00;9.00;;;;;44.92;20.64;100499.63;5038827;28;45785;-77
2023/10/02 09:19:41;;;;;;;;;8.00;8.00;;;;;44.94;21.13;100509.41;5051143;28;45360;-84
2023/10/02 09:22:17;;;;;;;;;9.00;8.33;;;;;44.55;21.65;100506.63;5042496;28;45690;-83
2023/10/02 09:24:58;;;;;;;;;10.00;9.00;;;;;44.13;22.17;100504.97;5077039;28;45491;-83
2023/10/02 09:27:28;;;;;;;;;9.67;9.67;;;;;43.78;22.28;100507.03;5074145;28;45677;-81
2023/10/02 09:32:49;;;;;;;;;9.67;9.67;;;;;43.98;22.77;100502.88;5063371;28;45398;-83
2023/10/02 09:35:22;;;;;;;;;9.67;9.00;;;;;44.32;22.38;100509.25;5077339;27;45354;-82
2023/10/02 09:37:56;;;;;;;;;8.00;7.00;;;;;44.22;22.55;100495.66;5041327;28;47046;-78
2023/10/02 09:40:27;;;;;;;;;9.00;9.00;;;;;44.20;21.70;100494.97;5076564;28;45620;-75
2023/10/02 09:43:01;;;;;;;;;8.00;8.00;;;;;43.85;21.86;100503.44;5049092;28;45503;-74
2023/10/02 09:45:31;;;;;;;;;6.67;6.33;;;;;43.60;22.38;100491.50;5039471;28;45988;-83
2023/10/02 09:48:05;;;;;;;;;10.33;10.33;;;;;43.38;22.38;100497.69;5060905;28;46110;-74
2023/10/02 09:50:37;;;;;;;;;8.00;8.00;;;;;43.10;22.53;100492.44;5076983;28;45310;-74
2023/10/02 09:53:10;;;;;;;;;7.67;7.67;;;;;42.84;23.32;100493.34;5079340;28;45514;-76
2023/10/02 09:55:40;;;;;;;;;8.67;8.00;;;;;42.83;23.17;100502.59;5074764;28;45311;-74
2023/10/02 09:58:26;;;;;;;;;11.00;10.67;;;;;42.73;23.70;100496.38;5072847;28;46081;-79
2023/10/02 10:03:56;;;;;;;;;8.33;8.33;;;;;42.95;23.79;100499.59;5074084;28;45429;-79
2023/10/02 10:06:48;;;;;;;;;10.33;10.00;;;;;42.85;24.37;100491.44;5059053;28;45822;-75
2023/10/02 10:11:43;;;;;;;;;10.00;10.00;;;;;42.79;24.40;100501.22;5082136;27;45615;-74
2023/10/02 10:14:36;;;;;;;;;10.33;9.00;;;;;42.79;23.33;100503.97;5085590;27;45331;-74
2023/10/02 10:17:49;;;;;;;;;9.33;9.33;;;;;42.74;23.72;100500.88;5083662;27;45374;-74
2023/10/02 10:20:19;;;;;;;;;9.00;9.00;;;;;42.81;23.69;100490.91;5063072;28;45895;-78
2023/10/02 10:22:55;;;;;;;;;7.67;7.67;;;;;42.90;23.46;100492.72;5075165;28;45417;-74
2023/10/02 10:27:55;;;;;;;;;9.00;8.00;;;;;42.43;23.54;100493.09;5073857;28;45531;-81
2023/10/02 10:33:20;;;;;;;;;14.67;12.67;;;;;42.07;24.46;100489.63;5055292;28;45435;-79
2023/10/02 10:35:57;;;;;;;;;14.00;13.00;;;;;41.78;24.33;100496.22;5056510;28;45355;-74
2023/10/02 10:38:29;;;;;;;;;24.00;22.00;;;;;41.86;24.31;100499.03;5075238;28;45490;-79
2023/10/02 10:41:00;;;;;;;;;28.75;27.50;;;;;41.83;24.82;100488.38;5059033;28;46085;-73
2023/10/02 10:43:43;;;;;;;;;28.75;25.50;;;;;41.58;24.84;100491.88;5075027;28;45394;-80
2023/10/02 10:46:21;;;;;;;;;31.75;28.75;;;;;41.19;24.98;100478.47;5072965;28;45584;-74
2023/10/02 10:49:19;;;;;;;;;16.67;15.67;;;;;41.17;25.49;100489.56;5074919;28;45229;-80
2023/10/02 10:51:52;;;;;;;;;24.67;23.00;;;;;40.95;26.49;100483.50;5063279;28;46301;-81
2023/10/02 10:54:30;;;;;;;;;26.33;22.67;;;;;40.72;26.74;100480.25;5070830;28;45491;-74
2023/10/02 10:57:51;;;;;;;;;9.00;8.67;;;;;40.67;26.09;100485.34;5056097;28;45530;-73
2023/10/02 10:59:46;;;;;;;;;16.33;16.00;;;;;40.51;26.27;100477.78;5066172;28;45925;-79
2023/10/02 11:02:18;;;;;;;;;18.33;16.33;;;;;40.45;26.41;100492.06;5074182;28;46029;-73
2023/10/02 11:04:48;;;;;;;;;10.00;10.00;;;;;40.62;26.29;100484.94;5075149;28;45679;-73
2023/10/02 11:07:21;;;;;;;;;12.00;11.33;;;;;40.72;25.33;100493.97;5064027;28;45336;-80
2023/10/02 11:10:14;;;;;;;;;14.00;14.00;;;;;40.62;25.53;100486.81;5071143;28;45339;-74
2023/10/02 11:12:54;;;;;;;;;12.67;12.67;;;;;40.34;25.27;100494.97;5063478;28;46001;-74
2023/10/02 11:18:19;;;;;;;;;8.67;8.33;;;;;40.09;25.97;100490.97;5075725;28;45563;-72
2023/10/02 11:20:56;;;;;;;;;8.00;8.00;;;;;39.78;26.23;100489.25;5075377;28;45498;-73
2023/10/02 11:23:43;;;;;;;;;8.67;8.67;;;;;39.35;26.56;100492.38;5074397;28;45505;-74
2023/10/02 11:26:21;;;;;;;;;10.33;9.33;;;;;39.21;26.85;100484.59;5062193;28;45334;-73
2023/10/02 11:28:50;;;;;;;;;7.00;7.00;;;;;38.90;26.88;100477.31;5075470;28;45484;-73
2023/10/02 11:31:29;;;;;;;;;9.00;8.33;;;;;38.85;27.42;100479.56;5074233;28;45479;-73
2023/10/02 11:34:11;;;;;;;;;9.00;9.00;;;;;38.87;27.40;100480.31;5042314;28;47673;-73
2023/10/02 11:36:50;;;;;;;;;8.00;8.00;;;;;38.70;27.39;100484.56;5069940;28;45584;-73
2023/10/02 11:39:19;;;;;;;;;11.67;11.67;;;;;38.58;27.00;100475.63;5065803;28;45327;-74
2023/10/02 11:41:49;;;;;;;;;10.67;10.00;;;;;38.57;26.99;100487.53;5057767;28;45531;-81
2023/10/02 11:44:15;;;;;;;;;18.50;18.50;;;;;38.33;27.40;100482.34;5061262;28;45628;-72
2023/10/02 11:46:41;;;;;;;;;43.75;36.00;;;;;38.26;27.94;100485.75;5060605;28;45572;-80
2023/10/02 11:49:08;;;;;;;;;36.25;32.00;;;;;38.29;27.84;100488.22;5040833;28;45379;-74
2023/10/02 11:51:34;;;;;;;;;13.00;13.00;;;;;38.28;27.90;100471.00;5074457;28;45362;-82
2023/10/02 11:54:05;;;;;;;;;8.67;8.67;;;;;38.16;28.23;100474.78;5058371;28;46030;-73
2023/10/02 11:56:32;;;;;;;;;12.33;10.33;;;;;38.16;28.44;100478.38;5040257;28;45375;-81
2023/10/02 11:58:58;;;;;;;;;9.00;8.00;;;;;38.12;28.05;100478.78;5073643;28;45461;-80
2023/10/02 12:01:27;;;;;;;;;10.00;10.00;;;;;38.00;28.83;100475.22;5077434;28;45592;-74
2023/10/02 12:03:59;;;;;;;;;8.33;8.33;;;;;38.05;28.33;100475.69;5075424;28;45453;-73
2023/10/02 12:06:27;;;;;;;;;9.00;9.00;;;;;38.05;28.01;100472.97;5043817;28;45561;-80
2023/10/02 12:08:58;;;;;;;;;8.33;8.33;;;;;37.97;28.50;100470.91;5048671;28;45581;-74
2023/10/02 12:11:28;;;;;;;;;10.33;10.00;;;;;37.86;28.21;100464.66;5058493;28;45290;-73
2023/10/02 12:13:54;;;;;;;;;8.00;7.33;;;;;37.88;28.54;100470.84;5045284;28;46940;-80
2023/10/02 12:16:21;;;;;;;;;9.33;9.33;;;;;37.92;28.36;100469.56;5078186;28;45282;-73
2023/10/02 12:18:49;;;;;;;;;9.67;9.00;;;;;37.74;28.14;100461.13;5078502;28;45495;-74
2023/10/02 12:21:16;;;;;;;;;7.00;7.00;;;;;37.80;28.12;100466.03;5062035;28;45404;-73
2023/10/02 12:23:43;;;;;;;;;9.33;9.00;;;;;37.77;28.47;100460.88;5073128;28;46065;-73
2023/10/02 12:26:13;;;;;;;;;7.33;7.33;;;;;37.76;28.07;100465.47;5047219;28;45600;-73
2023/10/02 12:28:39;;;;;;;;;10.00;10.00;;;;;37.74;28.50;100469.28;5040363;28;45541;-73
2023/10/02 12:31:13;;;;;;;;;7.00;7.00;;;;;37.62;28.77;100452.13;5063794;28;45515;-73
2023/10/02 12:33:46;;;;;;;;;8.00;8.00;;;;;37.53;28.48;100461.06;5078278;27;46045;-73
2023/10/02 12:36:15;;;;;;;;;9.67;8.67;;;;;37.55;28.56;100470.84;5065352;28;45710;-73
2023/10/02 12:38:41;;;;;;;;;10.00;9.33;;;;;37.64;28.57;100465.63;5074806;28;45303;-73
2023/10/02 12:41:19;;;;;;;;;8.00;8.00;;;;;37.51;28.56;100458.47;5072624;27;45582;-74
2023/10/02 12:43:46;;;;;;;;;9.33;8.33;;;;;37.40;28.88;100463.97;5069548;28;46284;-81
2023/10/02 12:46:16;;;;;;;;;6.67;6.67;;;;;37.36;29.03;100459.75;5057135;28;45479;-80
2023/10/02 12:48:48;;;;;;;;;9.67;9.67;;;;;37.28;29.23;100451.38;5063338;28;45253;-73
2023/10/02 12:51:15;;;;;;;;;12.00;12.00;;;;;37.36;28.93;100457.91;5078498;28;45502;-73